KMKC/MKC METAR and TAF weather

Enter ICAO airport designator
Station Type Date Time Source
KMKC METAR 2019/02/16 06:54 UTC NOAA

KMKC 160654Z 36008KT 10SM OVC041 M08/M13 A3015 RMK AO2 SLP220 T10781128


Station Type Date Time Source
KMKC Decoded METAR 2019/02/16 06:54 UTC NOAA

KANSAS CITY DOWNTOWN AIRPORT , MO, United States (KMKC) 39-07N 094-36W 227M
Feb 16, 2019 - 01:54 AM EST / 2019.02.16 0654 UTC
Wind: from the N (360 degrees) at 9 MPH (8 KT):0
Visibility: 10 mile(s):0
Sky conditions: overcast
Temperature: 18.0 F (-7.8 C)
Windchill: 6 F (-14 C):1
Dew Point: 9.0 F (-12.8 C)
Relative Humidity: 67%
Pressure (altimeter): 30.15 in. Hg (1020 hPa)
ob: KMKC 160654Z 36008KT 10SM OVC041 M08/M13 A3015 RMK AO2 SLP220 T10781128
cycle: 7

Station Type Date Time Source
KMKC TAF 2019/02/16 06:22 UTC NOAA

TAF KMKC 160520Z 1606/1706 02005KT P6SM BKN040
FM162100 08008KT P6SM OVC025
FM170000 09007KT 4SM -SN OVC022
FM170200 09006KT 2SM -SN OVC018


Example: see airport list